Terminal Aerodrome Forecast
Issued by NWS Sterling, VA

Current Version | Previous Version | Text Only | Print | Product List | Glossary On
Versions: 1 2 3 4 5 6 7 8 9 10 11 12 13
000
FTUS41 KLWX 271100
TAFMRB
TAF
KMRB 271140Z 2712/2812 VRB03KT P6SM BKN120
     FM272000 14005KT P6SM SCT250
     FM280500 VRB03KT P6SM OVC080=

USA.gov is the U.S. government's official web portal to all federal, state and local government web resources and services.